createdAt,value
2017-06-28T00:00:39.716Z,75.00
2017-06-28T00:03:07.173Z,74.90
2017-06-28T00:05:34.648Z,75.00
2017-06-28T00:08:02.069Z,74.70
2017-06-28T00:10:29.501Z,74.90
2017-06-28T00:12:56.913Z,75.10
2017-06-28T00:15:24.373Z,75.20
2017-06-28T00:17:51.853Z,75.00
2017-06-28T00:20:19.277Z,74.90
2017-06-28T00:22:46.707Z,74.90
2017-06-28T00:25:14.198Z,75.20
2017-06-28T00:27:41.617Z,75.00
2017-06-28T00:30:09.115Z,74.90
2017-06-28T00:32:36.529Z,74.90
2017-06-28T00:35:04.022Z,74.70
2017-06-28T00:37:31.473Z,74.90
2017-06-28T00:39:58.901Z,74.90
2017-06-28T00:42:26.330Z,74.80
2017-06-28T00:44:53.749Z,74.80
2017-06-28T00:47:21.174Z,75.00
2017-06-28T00:49:48.593Z,75.30
2017-06-28T00:52:16.030Z,75.10
2017-06-28T00:54:43.471Z,75.00
2017-06-28T00:57:10.890Z,74.70
2017-06-28T00:59:38.319Z,74.60
2017-06-28T01:02:06.553Z,74.50
2017-06-28T01:04:33.973Z,74.60
2017-06-28T01:07:01.400Z,74.30
2017-06-28T01:09:29.645Z,74.00
2017-06-28T01:11:57.082Z,74.80
2017-06-28T01:14:24.510Z,73.90
2017-06-28T01:16:52.730Z,73.90
2017-06-28T01:19:20.172Z,73.90
2017-06-28T01:21:47.600Z,73.90
2017-06-28T01:24:15.020Z,74.10
2017-06-28T01:26:42.448Z,73.90
2017-06-28T01:29:09.865Z,73.90
2017-06-28T01:31:37.352Z,74.00
2017-06-28T01:34:04.781Z,74.00
2017-06-28T01:36:32.204Z,74.30
2017-06-28T01:38:59.629Z,74.40
2017-06-28T01:41:27.079Z,74.40
2017-06-28T01:43:54.501Z,74.10
2017-06-28T01:46:21.920Z,74.00
2017-06-28T01:48:49.352Z,73.90
2017-06-28T01:51:16.774Z,73.90
2017-06-28T01:53:44.204Z,73.60
2017-06-28T01:56:12.438Z,74.50
2017-06-28T01:58:39.865Z,73.60
2017-06-28T02:01:07.354Z,73.60
2017-06-28T02:03:34.774Z,73.60
2017-06-28T02:06:02.201Z,73.40
2017-06-28T02:08:30.384Z,73.30
2017-06-28T02:10:58.604Z,73.60
2017-06-28T02:13:26.028Z,73.50
2017-06-28T02:15:53.444Z,73.60
2017-06-28T02:18:20.869Z,73.80
2017-06-28T02:20:48.315Z,73.80
2017-06-28T02:23:15.723Z,74.00
2017-06-28T02:25:43.956Z,74.10
2017-06-28T02:28:11.406Z,74.10
2017-06-28T02:30:38.821Z,74.20
2017-06-28T02:33:07.534Z,74.50
2017-06-28T02:35:35.013Z,74.50
2017-06-28T02:38:02.437Z,74.40
2017-06-28T02:40:29.917Z,74.60
2017-06-28T02:42:57.373Z,74.80
2017-06-28T02:45:24.796Z,74.90
2017-06-28T02:47:52.219Z,74.90
2017-06-28T02:50:19.644Z,75.30
2017-06-28T02:52:47.095Z,75.20
2017-06-28T02:55:14.525Z,75.30
2017-06-28T02:57:41.948Z,75.30
2017-06-28T03:00:10.138Z,77.00
2017-06-28T03:02:38.334Z,75.70
2017-06-28T03:05:05.752Z,75.70
2017-06-28T03:07:33.260Z,75.80
2017-06-28T03:10:00.680Z,75.90
2017-06-28T03:12:28.869Z,76.00
2017-06-28T03:14:56.288Z,76.00
2017-06-28T03:17:23.808Z,76.10
2017-06-28T03:19:51.237Z,76.30
2017-06-28T03:22:18.720Z,76.40
2017-06-28T03:24:46.174Z,76.40
2017-06-28T03:27:18.496Z,76.60
2017-06-28T03:29:46.689Z,76.80
2017-06-28T03:32:14.179Z,76.70
2017-06-28T03:34:41.600Z,76.80
2017-06-28T03:37:09.040Z,77.30
2017-06-28T03:39:37.255Z,76.90
2017-06-28T03:42:04.668Z,76.80
2017-06-28T03:44:32.861Z,77.00
2017-06-28T03:47:00.282Z,77.00
2017-06-28T03:49:27.716Z,76.90
2017-06-28T03:51:55.133Z,76.60
2017-06-28T03:54:22.618Z,76.50
2017-06-28T03:56:50.048Z,76.50
2017-06-28T03:59:17.476Z,76.60
2017-06-28T04:01:45.705Z,75.80
2017-06-28T04:04:13.131Z,75.80
2017-06-28T04:06:40.609Z,76.30
2017-06-28T04:09:08.065Z,75.80
2017-06-28T04:11:35.490Z,75.50
2017-06-28T04:14:02.922Z,75.30
2017-06-28T04:16:30.332Z,75.20
2017-06-28T04:18:57.832Z,75.20
2017-06-28T04:21:25.348Z,75.10
2017-06-28T04:23:52.806Z,75.30
2017-06-28T04:26:20.239Z,75.60
2017-06-28T04:28:47.660Z,75.60
2017-06-28T04:31:15.085Z,75.40
2017-06-28T04:33:42.509Z,74.60
2017-06-28T04:36:09.980Z,75.50
2017-06-28T04:38:37.413Z,75.60
2017-06-28T04:41:04.833Z,75.80
2017-06-28T04:43:32.276Z,76.20
2017-06-28T04:45:59.684Z,76.30
2017-06-28T04:48:27.173Z,76.20
2017-06-28T04:50:54.596Z,75.90
2017-06-28T04:53:22.021Z,75.70
2017-06-28T04:55:50.221Z,75.10
2017-06-28T04:58:17.706Z,75.10
2017-06-28T05:00:45.128Z,74.80
2017-06-28T05:03:12.626Z,74.80
2017-06-28T05:05:40.050Z,74.40
2017-06-28T05:08:07.544Z,73.90
2017-06-28T05:10:34.979Z,74.10
2017-06-28T05:13:02.447Z,74.10
2017-06-28T05:15:29.882Z,74.00
2017-06-28T05:17:58.101Z,74.00
2017-06-28T05:20:25.538Z,74.00
2017-06-28T05:22:52.968Z,73.70
2017-06-28T05:25:21.171Z,73.40
2017-06-28T05:27:48.838Z,73.30
2017-06-28T05:30:17.024Z,73.30
2017-06-28T05:32:44.623Z,73.20
2017-06-28T05:35:12.265Z,72.80
2017-06-28T05:37:40.601Z,73.00
2017-06-28T05:40:08.405Z,73.00
2017-06-28T05:42:35.837Z,72.90
2017-06-28T05:45:03.357Z,72.70
2017-06-28T05:47:30.798Z,72.70
2017-06-28T05:49:58.224Z,72.50
2017-06-28T05:52:25.640Z,72.50
2017-06-28T05:54:53.087Z,72.60
2017-06-28T05:57:20.526Z,72.30
2017-06-28T05:59:47.956Z,72.00
2017-06-28T06:02:15.540Z,72.00
2017-06-28T06:04:42.965Z,71.60
2017-06-28T06:07:10.393Z,71.40
2017-06-28T06:09:37.807Z,71.10
2017-06-28T06:12:05.268Z,71.00
2017-06-28T06:14:32.724Z,70.70
2017-06-28T06:17:00.144Z,70.90
2017-06-28T06:19:27.565Z,70.50
2017-06-28T06:21:55.052Z,70.40
2017-06-28T06:24:22.472Z,69.90
2017-06-28T06:26:49.909Z,69.70
2017-06-28T06:29:17.329Z,69.80
2017-06-28T06:31:44.808Z,69.80
2017-06-28T06:34:12.265Z,69.90
2017-06-28T06:36:39.719Z,70.00
2017-06-28T06:39:07.136Z,69.80
2017-06-28T06:41:35.328Z,70.00
2017-06-28T06:44:03.513Z,69.90
2017-06-28T06:46:30.940Z,69.90
2017-06-28T06:48:59.129Z,69.30
2017-06-28T06:51:26.552Z,69.30
2017-06-28T06:53:54.793Z,69.20
2017-06-28T06:56:23.267Z,69.10
2017-06-28T06:58:50.725Z,69.40
2017-06-28T07:01:18.952Z,69.90
2017-06-28T07:03:47.135Z,70.30
2017-06-28T07:06:14.617Z,70.20
2017-06-28T07:08:42.050Z,70.20
2017-06-28T07:11:09.478Z,70.60
2017-06-28T07:13:36.917Z,70.70
2017-06-28T07:16:04.321Z,70.80
2017-06-28T07:18:31.750Z,71.10
2017-06-28T07:20:59.203Z,71.70
2017-06-28T07:23:27.414Z,71.80
2017-06-28T07:25:54.817Z,71.80
2017-06-28T07:28:22.250Z,71.80
2017-06-28T07:30:49.697Z,72.20
2017-06-28T07:33:17.125Z,72.40
2017-06-28T07:35:44.637Z,72.60
2017-06-28T07:38:12.044Z,72.60
2017-06-28T07:40:39.473Z,73.30
2017-06-28T07:43:07.701Z,73.40
2017-06-28T07:45:35.960Z,74.00
2017-06-28T07:48:03.515Z,74.10
2017-06-28T07:50:30.916Z,74.30
2017-06-28T07:52:58.351Z,74.20
2017-06-28T07:55:25.781Z,74.60
2017-06-28T07:57:53.216Z,74.20
2017-06-28T08:00:20.694Z,73.80
2017-06-28T08:02:48.121Z,73.30
2017-06-28T08:05:16.309Z,73.10
2017-06-28T08:07:43.730Z,73.10
2017-06-28T08:10:11.249Z,72.80
2017-06-28T08:12:38.706Z,72.20
2017-06-28T08:15:06.136Z,72.00
2017-06-28T08:17:33.565Z,71.90
2017-06-28T08:20:01.758Z,71.90
2017-06-28T08:22:29.197Z,71.80
2017-06-28T08:24:57.425Z,71.50
2017-06-28T08:27:24.857Z,71.40
2017-06-28T08:29:52.333Z,71.60
2017-06-28T08:32:19.793Z,71.50
2017-06-28T08:34:47.217Z,71.30
2017-06-28T08:37:14.674Z,70.30
2017-06-28T08:39:42.089Z,70.40
2017-06-28T08:42:09.515Z,70.50
2017-06-28T08:44:36.969Z,70.40
2017-06-28T08:47:04.401Z,70.10
2017-06-28T08:49:31.858Z,70.50
2017-06-28T08:51:59.265Z,69.30
2017-06-28T08:54:26.793Z,69.80
2017-06-28T08:56:54.222Z,69.60
2017-06-28T08:59:21.697Z,69.40
2017-06-28T09:01:49.129Z,69.00
2017-06-28T09:04:16.629Z,68.50
2017-06-28T09:06:44.068Z,68.70
2017-06-28T09:09:11.481Z,68.90
2017-06-28T09:11:39.706Z,68.90
2017-06-28T09:14:07.147Z,68.90
2017-06-28T09:16:34.611Z,69.70
2017-06-28T09:19:02.036Z,70.70
2017-06-28T09:21:29.534Z,71.10
2017-06-28T09:23:56.984Z,71.70
2017-06-28T09:26:24.405Z,70.40
2017-06-28T09:28:51.908Z,70.60
2017-06-28T09:31:19.325Z,70.90
2017-06-28T09:33:46.760Z,71.00
2017-06-28T09:36:14.980Z,73.10
2017-06-28T09:38:42.449Z,73.10
2017-06-28T09:41:09.894Z,74.10
2017-06-28T09:43:37.331Z,75.70
2017-06-28T09:46:04.761Z,77.00
2017-06-28T09:48:32.980Z,79.20
2017-06-28T09:51:00.436Z,79.10
2017-06-28T09:53:27.892Z,79.30
2017-06-28T09:55:55.309Z,80.40
2017-06-28T09:58:22.809Z,81.00
2017-06-28T10:00:50.264Z,81.10
2017-06-28T10:03:17.725Z,81.40
2017-06-28T10:05:45.268Z,81.70
2017-06-28T10:08:12.668Z,81.50
2017-06-28T10:10:40.172Z,82.80
2017-06-28T10:13:08.265Z,82.40
2017-06-28T10:15:35.700Z,81.50
2017-06-28T10:18:03.183Z,81.40
2017-06-28T10:20:30.617Z,82.00
2017-06-28T10:22:58.056Z,81.90
2017-06-28T10:25:25.469Z,82.50
2017-06-28T10:27:52.989Z,82.80
2017-06-28T10:30:20.455Z,81.80
2017-06-28T10:32:47.913Z,83.20
2017-06-28T10:35:16.137Z,86.20
2017-06-28T10:37:43.616Z,85.40
2017-06-28T10:40:11.813Z,85.50
2017-06-28T10:42:39.238Z,85.40
2017-06-28T10:45:06.726Z,86.30
2017-06-28T10:47:34.197Z,86.50
2017-06-28T10:50:01.636Z,86.40
2017-06-28T10:52:29.097Z,85.50
2017-06-28T10:54:56.525Z,86.50
2017-06-28T10:57:23.949Z,86.10
2017-06-28T10:59:52.158Z,84.80
2017-06-28T11:02:19.581Z,84.80
2017-06-28T11:04:47.804Z,87.70
2017-06-28T11:07:15.233Z,87.60
2017-06-28T11:09:42.721Z,88.30
2017-06-28T11:12:10.148Z,88.90
2017-06-28T11:14:37.573Z,90.00
2017-06-28T11:17:05.761Z,91.00
2017-06-28T11:19:33.952Z,91.30
2017-06-28T11:22:01.391Z,91.30
2017-06-28T11:24:29.601Z,91.20
2017-06-28T11:26:57.061Z,91.20
2017-06-28T11:29:24.522Z,91.20
2017-06-28T11:31:51.973Z,91.80
2017-06-28T11:34:19.435Z,91.60
2017-06-28T11:36:46.861Z,91.30
2017-06-28T11:39:14.289Z,91.90
2017-06-28T11:41:42.480Z,93.00
2017-06-28T11:44:09.978Z,93.00
2017-06-28T11:46:37.422Z,93.00
2017-06-28T11:49:04.837Z,92.40
2017-06-28T11:51:33.036Z,93.00
2017-06-28T11:54:00.473Z,93.00
2017-06-28T11:56:28.657Z,93.30
2017-06-28T11:58:56.093Z,93.30
2017-06-28T12:01:24.287Z,93.20
2017-06-28T12:03:51.704Z,93.20
2017-06-28T12:06:19.152Z,93.60
2017-06-28T12:08:46.578Z,93.20
2017-06-28T12:11:14.006Z,93.20
2017-06-28T12:13:41.497Z,93.80
2017-06-28T12:16:08.923Z,93.90
2017-06-28T12:18:36.345Z,93.90
2017-06-28T12:21:03.785Z,94.10
2017-06-28T12:23:31.204Z,94.00
2017-06-28T12:25:58.634Z,94.10
2017-06-28T12:28:26.845Z,94.30
2017-06-28T12:30:54.276Z,94.20
2017-06-28T12:33:21.707Z,94.20
2017-06-28T12:35:49.897Z,94.10
2017-06-28T12:38:17.325Z,94.10
2017-06-28T12:40:44.755Z,94.20
2017-06-28T12:43:12.206Z,94.50
2017-06-28T12:45:39.633Z,94.40
2017-06-28T12:48:07.068Z,94.10
2017-06-28T12:50:35.288Z,94.80
2017-06-28T12:53:02.710Z,94.70
2017-06-28T12:55:30.140Z,94.50
2017-06-28T12:57:57.560Z,94.30
2017-06-28T13:00:25.002Z,94.30
2017-06-28T13:02:52.442Z,94.40
2017-06-28T13:05:19.869Z,93.80
2017-06-28T13:07:48.057Z,94.00
2017-06-28T13:10:15.553Z,94.00
2017-06-28T13:12:42.981Z,93.70
2017-06-28T13:15:10.405Z,93.40
2017-06-28T13:17:38.617Z,94.00
2017-06-28T13:20:06.042Z,94.30
2017-06-28T13:22:34.264Z,94.30
2017-06-28T13:25:01.824Z,94.30
2017-06-28T13:27:29.270Z,94.20
2017-06-28T13:29:56.741Z,94.40
2017-06-28T13:32:24.171Z,94.00
2017-06-28T13:34:51.593Z,94.10
2017-06-28T13:37:19.823Z,94.30
2017-06-28T13:39:47.261Z,94.20
2017-06-28T13:42:14.681Z,93.30
2017-06-28T13:44:42.193Z,93.00
2017-06-28T13:47:09.617Z,92.50
2017-06-28T13:49:37.107Z,92.70
2017-06-28T13:52:04.559Z,92.30
2017-06-28T13:54:32.006Z,92.30
2017-06-28T13:56:59.413Z,92.80
2017-06-28T13:59:27.652Z,92.90
2017-06-28T14:01:55.073Z,92.90
2017-06-28T14:04:22.553Z,93.50
2017-06-28T14:06:49.972Z,93.30
2017-06-28T14:09:17.401Z,93.20
2017-06-28T14:11:44.822Z,93.20
2017-06-28T14:14:12.248Z,93.50
2017-06-28T14:16:39.916Z,93.10
2017-06-28T14:19:07.353Z,92.90
2017-06-28T14:21:35.572Z,91.30
2017-06-28T14:24:03.005Z,91.30
2017-06-28T14:26:30.481Z,91.00
2017-06-28T14:28:57.944Z,91.40
2017-06-28T14:31:25.369Z,91.20
2017-06-28T14:33:52.800Z,91.10
2017-06-28T14:36:20.225Z,91.10
2017-06-28T14:38:47.662Z,91.60
2017-06-28T14:41:15.081Z,91.00
2017-06-28T14:43:42.514Z,90.60
2017-06-28T14:46:10.709Z,89.90
2017-06-28T14:48:38.132Z,89.90
2017-06-28T14:51:05.558Z,89.80
2017-06-28T14:53:33.010Z,90.60
2017-06-28T14:56:00.468Z,91.00
2017-06-28T14:58:27.928Z,91.60
2017-06-28T15:00:55.384Z,91.80
2017-06-28T15:03:22.842Z,92.40
2017-06-28T15:05:50.361Z,91.60
2017-06-28T15:08:17.789Z,90.30
2017-06-28T15:10:45.985Z,90.80
2017-06-28T15:13:13.411Z,90.30
2017-06-28T15:15:40.928Z,90.10
2017-06-28T15:18:08.389Z,90.40
2017-06-28T15:20:35.846Z,91.00
2017-06-28T15:23:03.394Z,91.00
2017-06-28T15:25:31.054Z,90.80
2017-06-28T15:27:58.716Z,91.00
2017-06-28T15:30:26.947Z,91.40
2017-06-28T15:32:54.574Z,91.10
2017-06-28T15:35:21.984Z,90.20
2017-06-28T15:37:49.400Z,89.10
2017-06-28T15:40:17.731Z,85.70
2017-06-28T20:51:53.738Z,87.50
2017-06-28T20:54:21.919Z,88.20
2017-06-28T20:56:50.099Z,88.30
2017-06-28T20:59:17.512Z,88.30
2017-06-28T21:01:44.930Z,88.80
2017-06-28T21:04:12.471Z,88.90
2017-06-28T21:06:39.879Z,88.50
2017-06-28T21:09:07.293Z,88.30
2017-06-28T21:11:34.703Z,88.00
2017-06-28T21:14:02.937Z,89.30
2017-06-28T21:16:30.322Z,89.20
2017-06-28T21:18:57.734Z,89.40
2017-06-28T21:21:25.147Z,89.10
2017-06-28T21:23:52.557Z,88.80
2017-06-28T21:26:19.967Z,88.80
2017-06-28T21:28:48.149Z,89.70
2017-06-28T21:31:16.329Z,90.00
2017-06-28T21:33:44.500Z,90.00
2017-06-28T21:36:12.687Z,90.00
2017-06-28T21:38:40.102Z,90.00
2017-06-28T21:41:07.516Z,90.00
2017-06-28T21:43:34.928Z,90.30
2017-06-28T21:46:03.135Z,90.30
2017-06-28T21:48:30.548Z,90.30
2017-06-28T21:50:57.967Z,90.30
2017-06-28T21:53:25.383Z,90.40
2017-06-28T21:55:53.571Z,90.50
2017-06-28T21:58:20.985Z,90.50
2017-06-28T22:00:48.419Z,90.50
2017-06-28T22:03:15.832Z,90.60
2017-06-28T22:05:43.235Z,90.80
2017-06-28T22:08:10.658Z,91.30
2017-06-28T22:10:38.123Z,91.30
2017-06-28T22:13:05.542Z,91.30
2017-06-28T22:15:32.957Z,91.30
2017-06-28T22:18:00.363Z,91.00
2017-06-28T22:20:36.611Z,90.70
2017-06-28T22:23:04.792Z,91.50
2017-06-28T22:25:33.491Z,91.80
2017-06-28T22:28:00.907Z,91.80
2017-06-28T22:30:28.319Z,91.80
2017-06-28T22:32:55.732Z,91.70
2017-06-28T22:35:23.907Z,91.50
2017-06-28T22:37:52.092Z,91.90
2017-06-28T22:40:19.496Z,91.50
2017-06-28T22:42:46.910Z,92.20
2017-06-28T22:45:14.328Z,92.60
2017-06-28T22:47:41.755Z,93.00
2017-06-28T22:50:09.308Z,93.20
2017-06-28T22:52:36.722Z,93.60
2017-06-28T22:55:04.894Z,93.90
2017-06-28T22:57:33.083Z,93.90
2017-06-28T23:00:00.499Z,93.90
2017-06-28T23:02:27.919Z,94.00
2017-06-28T23:04:55.335Z,94.10
2017-06-28T23:09:57.436Z,94.10
2017-06-28T23:12:24.853Z,94.30
2017-06-28T23:14:52.274Z,94.30
2017-06-28T23:17:19.696Z,94.20
2017-06-28T23:19:47.111Z,94.30
2017-06-28T23:22:14.514Z,93.90
2017-06-28T23:24:41.935Z,94.10
2017-06-28T23:27:09.360Z,94.20
2017-06-28T23:29:36.809Z,94.00
2017-06-28T23:32:04.224Z,93.70
2017-06-28T23:34:32.408Z,93.60
2017-06-28T23:36:59.823Z,93.60
2017-06-28T23:39:27.251Z,93.70
2017-06-28T23:41:54.657Z,93.70
2017-06-28T23:44:22.850Z,94.10
2017-06-28T23:46:51.029Z,94.20
2017-06-28T23:49:18.505Z,93.80
2017-06-28T23:51:45.912Z,94.00
2017-06-28T23:54:14.091Z,93.60
2017-06-28T23:56:42.266Z,93.80
2017-06-28T23:59:10.455Z,93.50
